Time;durP1;ratioP1;P1;durP2;ratioP2;P2;SDS_P1;SDS_P2;PMS_P1;PMS_P2;Temp;Humidity;BMP_temperature;BMP_pressure;BME280_temperature;BME280_humidity;BME280_pressure;Samples;Min_cycle;Max_cycle;Signal;HPM_P1;HPM_P2
2023/05/28 00:01:45;;;;;;;6.15;4.60;;;11.00;99.90;;;;;;5080476;28;20086;-59
2023/05/28 00:04:11;;;;;;;6.68;4.40;;;10.80;99.90;;;;;;5081003;28;20024;-60
2023/05/28 00:06:36;;;;;;;8.38;4.68;;;10.70;99.90;;;;;;5078923;28;20048;-59
2023/05/28 00:09:02;;;;;;;6.88;3.83;;;10.50;99.90;;;;;;5074583;28;20111;-60
2023/05/28 00:11:28;;;;;;;6.68;3.97;;;10.30;99.90;;;;;;5075627;28;20068;-61
2023/05/28 00:13:53;;;;;;;4.97;4.20;;;10.10;99.90;;;;;;5077568;28;20073;-59
2023/05/28 00:16:20;;;;;;;6.53;4.65;;;9.90;99.90;;;;;;5060042;28;20373;-60
2023/05/28 00:18:46;;;;;;;6.43;4.55;;;9.80;99.90;;;;;;5079915;28;20028;-59
2023/05/28 00:21:11;;;;;;;8.85;4.65;;;9.70;99.90;;;;;;5077822;28;20054;-60
2023/05/28 00:23:37;;;;;;;8.57;4.68;;;9.60;99.90;;;;;;5074413;28;20044;-59
2023/05/28 00:26:03;;;;;;;6.88;4.88;;;9.50;99.90;;;;;;5075711;28;20611;-59
2023/05/28 00:28:29;;;;;;;7.35;5.10;;;9.50;99.90;;;;;;5076567;28;20028;-60
2023/05/28 00:30:54;;;;;;;7.03;4.68;;;9.40;99.90;;;;;;5082689;28;20039;-61
2023/05/28 00:33:20;;;;;;;8.18;5.18;;;9.40;99.90;;;;;;5074051;28;20040;-61
2023/05/28 00:35:46;;;;;;;8.18;5.40;;;9.40;99.90;;;;;;5073678;28;20031;-60
2023/05/28 00:38:11;;;;;;;5.85;4.60;;;9.40;99.90;;;;;;5079377;28;20074;-59
2023/05/28 00:40:41;;;;;;;7.35;4.97;;;9.40;99.90;;;;;;5074545;28;20674;-59
2023/05/28 00:43:07;;;;;;;6.57;4.65;;;9.40;99.90;;;;;;5077075;28;20066;-61
2023/05/28 00:45:33;;;;;;;11.02;5.40;;;9.50;99.90;;;;;;5075112;28;20063;-60
2023/05/28 00:47:58;;;;;;;5.35;4.80;;;9.50;99.90;;;;;;5077111;28;20111;-61
2023/05/28 00:50:25;;;;;;;7.93;4.75;;;9.40;99.90;;;;;;5078029;28;20437;-61
2023/05/28 00:52:52;;;;;;;13.20;5.70;;;9.40;99.90;;;;;;5076684;28;20036;-60
2023/05/28 00:55:18;;;;;;;6.53;5.20;;;9.40;99.90;;;;;;5079758;28;20449;-60
2023/05/28 00:57:46;;;;;;;8.77;5.30;;;9.30;99.90;;;;;;5078479;28;20032;-62
2023/05/28 01:00:13;;;;;;;7.22;5.43;;;9.30;99.90;;;;;;5076148;28;20035;-61
2023/05/28 01:02:39;;;;;;;7.20;5.68;;;9.20;99.90;;;;;;5075087;28;20024;-61
2023/05/28 01:05:05;;;;;;;6.90;4.68;;;9.20;99.90;;;;;;5076685;28;20020;-61
2023/05/28 01:07:32;;;;;;;5.78;4.85;;;9.10;99.90;;;;;;5075238;28;20024;-60
2023/05/28 01:09:58;;;;;;;5.70;4.20;;;9.10;99.90;;;;;;5075345;28;20024;-60
2023/05/28 01:12:25;;;;;;;8.57;5.47;;;9.00;99.90;;;;;;5076744;28;20029;-61
2023/05/28 01:14:52;;;;;;;5.55;4.50;;;8.90;99.90;;;;;;5076254;28;20044;-59
2023/05/28 01:17:18;;;;;;;10.38;5.18;;;8.80;99.90;;;;;;5074767;28;20404;-60
2023/05/28 01:19:46;;;;;;;8.18;5.32;;;8.80;99.90;;;;;;5080328;28;20043;-61
2023/05/28 01:22:16;;;;;;;10.70;5.93;;;8.70;99.90;;;;;;5078063;28;20105;-61
2023/05/28 01:24:44;;;;;;;9.82;5.65;;;8.70;99.90;;;;;;5073640;28;20032;-61
2023/05/28 01:27:11;;;;;;;10.32;5.75;;;8.70;99.90;;;;;;5076691;28;20032;-62
2023/05/28 01:29:36;;;;;;;9.70;5.70;;;8.70;99.90;;;;;;5073437;28;20370;-59
2023/05/28 01:32:02;;;;;;;9.63;5.80;;;8.70;99.90;;;;;;5076708;28;20051;-60
2023/05/28 01:34:28;;;;;;;9.43;6.85;;;8.70;99.90;;;;;;5076714;28;20017;-61
2023/05/28 01:37:15;;;;;;;7.93;5.60;;;8.70;99.90;;;;;;5075632;28;20035;-61
2023/05/28 01:39:45;;;;;;;9.40;6.05;;;8.60;99.90;;;;;;5078511;28;20033;-60
2023/05/28 01:42:12;;;;;;;12.45;5.75;;;8.50;99.90;;;;;;5077860;28;20024;-60
2023/05/28 01:44:40;;;;;;;8.13;5.55;;;8.50;99.90;;;;;;5076913;28;20507;-60
2023/05/28 01:47:06;;;;;;;11.57;6.40;;;8.50;99.90;;;;;;5074494;28;20028;-60
2023/05/28 01:49:32;;;;;;;8.65;5.65;;;8.40;99.90;;;;;;5076414;28;20016;-61
2023/05/28 01:51:58;;;;;;;8.52;6.15;;;8.40;99.90;;;;;;5070995;28;20496;-60
2023/05/28 01:54:23;;;;;;;6.32;5.20;;;8.30;99.90;;;;;;5077476;28;20047;-60
2023/05/28 01:56:49;;;;;;;11.23;5.38;;;8.20;99.90;;;;;;5076311;28;20086;-60
2023/05/28 01:59:16;;;;;;;6.63;5.65;;;8.20;99.90;;;;;;5074759;28;20020;-60
2023/05/28 02:01:41;;;;;;;8.05;4.97;;;8.20;99.90;;;;;;5078006;28;20027;-61
2023/05/28 02:04:07;;;;;;;10.48;5.95;;;8.10;99.90;;;;;;5076895;28;20053;-60
2023/05/28 02:06:33;;;;;;;11.93;5.75;;;8.10;99.90;;;;;;5073193;28;20029;-60
2023/05/28 02:08:59;;;;;;;13.73;5.38;;;8.10;99.90;;;;;;5074642;28;20030;-60
2023/05/28 02:11:25;;;;;;;8.82;5.93;;;8.10;99.90;;;;;;5073864;28;20024;-60
2023/05/28 02:13:52;;;;;;;12.00;5.65;;;8.10;99.90;;;;;;5073574;28;20852;-60
2023/05/28 02:16:18;;;;;;;8.90;6.65;;;8.10;99.90;;;;;;5078858;28;20024;-59
2023/05/28 02:18:49;;;;;;;7.50;5.40;;;8.10;99.90;;;;;;5076009;28;20080;-59
2023/05/28 02:21:17;;;;;;;15.13;5.30;;;8.10;99.90;;;;;;5075915;28;20697;-60
2023/05/28 02:23:44;;;;;;;7.32;5.10;;;8.10;99.90;;;;;;5073429;28;20024;-59
2023/05/28 02:26:10;;;;;;;6.82;5.72;;;8.10;99.90;;;;;;5073110;28;20025;-60
2023/05/28 02:28:36;;;;;;;9.60;5.97;;;8.10;99.90;;;;;;5072059;28;20391;-60
2023/05/28 02:31:02;;;;;;;7.43;5.32;;;8.00;99.90;;;;;;5073520;28;20024;-60
2023/05/28 02:33:27;;;;;;;8.48;5.80;;;8.00;99.90;;;;;;5073087;28;20031;-60
2023/05/28 02:35:53;;;;;;;8.23;5.50;;;8.00;99.90;;;;;;5076123;28;20806;-60
2023/05/28 02:38:19;;;;;;;6.25;5.65;;;7.90;99.90;;;;;;5074856;28;20021;-60
2023/05/28 02:40:45;;;;;;;7.43;5.43;;;7.90;99.90;;;;;;5075719;28;20528;-60
2023/05/28 02:43:11;;;;;;;7.32;5.82;;;7.90;99.90;;;;;;5076066;28;20032;-60
2023/05/28 02:45:36;;;;;;;8.48;5.93;;;7.90;99.90;;;;;;5076460;28;20035;-60
2023/05/28 02:48:02;;;;;;;8.23;5.97;;;7.90;99.90;;;;;;5075563;28;20025;-60
2023/05/28 02:50:28;;;;;;;6.28;5.68;;;7.90;99.90;;;;;;5074456;28;20029;-60
2023/05/28 02:52:54;;;;;;;8.32;6.38;;;7.80;99.90;;;;;;5074043;28;20369;-61
2023/05/28 02:55:20;;;;;;;9.23;6.43;;;7.80;99.90;;;;;;5073490;28;20016;-60
2023/05/28 02:57:46;;;;;;;7.57;5.88;;;7.70;99.90;;;;;;5074746;28;20384;-61
2023/05/28 03:00:12;;;;;;;8.88;5.72;;;7.70;99.90;;;;;;5082767;28;20027;-61
2023/05/28 03:02:38;;;;;;;6.97;6.20;;;7.60;99.90;;;;;;5079899;28;20051;-60
2023/05/28 03:05:04;;;;;;;6.97;5.78;;;7.60;99.90;;;;;;5067168;28;20485;-61
2023/05/28 03:07:30;;;;;;;7.00;5.55;;;7.50;99.90;;;;;;5081700;28;20476;-60
2023/05/28 03:09:57;;;;;;;5.35;4.85;;;7.50;99.90;;;;;;5080530;28;20080;-60
2023/05/28 03:12:23;;;;;;;6.05;5.07;;;7.40;99.90;;;;;;5081521;28;20025;-61
2023/05/28 03:14:48;;;;;;;7.57;5.68;;;7.30;99.90;;;;;;5081783;28;20052;-61
2023/05/28 03:17:14;;;;;;;6.82;5.43;;;7.30;99.90;;;;;;5079504;28;20066;-60
2023/05/28 03:19:40;;;;;;;8.27;5.88;;;7.30;99.90;;;;;;5083802;28;20361;-61
2023/05/28 03:22:06;;;;;;;7.40;6.43;;;7.30;99.90;;;;;;5080776;28;20047;-60
2023/05/28 03:24:32;;;;;;;6.60;5.07;;;7.30;99.90;;;;;;5079865;28;20477;-59
2023/05/28 03:26:59;;;;;;;8.70;5.47;;;7.30;99.90;;;;;;5081064;28;20033;-61
2023/05/28 03:29:25;;;;;;;8.65;5.85;;;7.30;99.90;;;;;;5082731;28;20544;-61
2023/05/28 03:31:51;;;;;;;8.40;5.82;;;7.30;99.90;;;;;;5080340;28;20059;-60
2023/05/28 03:34:17;;;;;;;9.73;5.18;;;7.30;99.90;;;;;;5064121;28;20048;-61
2023/05/28 03:36:43;;;;;;;6.68;5.50;;;7.30;99.90;;;;;;5080566;28;20025;-59
2023/05/28 03:39:10;;;;;;;7.25;5.18;;;7.30;99.90;;;;;;5046287;28;20025;-60
2023/05/28 03:41:36;;;;;;;6.13;5.15;;;7.30;99.90;;;;;;5064107;28;20492;-61
2023/05/28 03:44:03;;;;;;;13.48;5.95;;;7.30;99.90;;;;;;5079565;28;20032;-60
2023/05/28 03:46:28;;;;;;;9.02;5.70;;;7.40;99.90;;;;;;5082485;28;20032;-61
2023/05/28 03:48:54;;;;;;;9.98;5.57;;;7.40;99.90;;;;;;5078299;28;20066;-60
2023/05/28 03:51:21;;;;;;;11.50;6.85;;;7.40;99.90;;;;;;5081652;28;20039;-60
2023/05/28 03:53:47;;;;;;;8.10;5.53;;;7.50;99.90;;;;;;5076979;28;20033;-59
2023/05/28 03:56:13;;;;;;;9.43;6.15;;;7.50;99.90;;;;;;5080949;28;20043;-60
2023/05/28 03:58:38;;;;;;;6.82;6.15;;;7.50;99.90;;;;;;5081793;28;20028;-61
2023/05/28 04:01:04;;;;;;;7.55;5.35;;;7.50;99.90;;;;;;5080131;28;20035;-60
2023/05/28 04:03:29;;;;;;;9.70;6.22;;;7.50;99.90;;;;;;5084383;28;20067;-60
2023/05/28 04:05:55;;;;;;;8.25;6.13;;;7.50;99.90;;;;;;5084988;28;20527;-60
2023/05/28 04:08:21;;;;;;;9.85;6.05;;;7.50;99.90;;;;;;5076864;28;20552;-60
2023/05/28 04:10:47;;;;;;;7.05;5.70;;;7.40;99.90;;;;;;5080953;28;20028;-61
2023/05/28 04:13:12;;;;;;;6.60;5.45;;;7.40;99.90;;;;;;5078394;28;20428;-60
2023/05/28 04:15:38;;;;;;;8.68;5.68;;;7.40;99.90;;;;;;5079603;28;20036;-60
2023/05/28 04:18:05;;;;;;;7.68;5.53;;;7.40;99.90;;;;;;5077589;28;20180;-61
2023/05/28 04:20:30;;;;;;;9.82;6.18;;;7.40;99.90;;;;;;5077513;28;20032;-61
2023/05/28 04:22:56;;;;;;;8.23;6.20;;;7.50;99.90;;;;;;5079113;28;20020;-59
2023/05/28 04:25:22;;;;;;;6.63;5.70;;;7.60;99.90;;;;;;5079279;28;20025;-60
2023/05/28 04:27:47;;;;;;;8.05;5.57;;;7.60;99.90;;;;;;5078691;28;20044;-60
2023/05/28 04:30:13;;;;;;;6.75;5.88;;;7.70;99.90;;;;;;5077686;28;20040;-59
2023/05/28 04:32:39;;;;;;;8.10;5.47;;;7.70;99.90;;;;;;5078942;28;20040;-60
2023/05/28 04:35:08;;;;;;;6.70;5.22;;;7.80;99.90;;;;;;5081086;28;20024;-60
2023/05/28 04:37:36;;;;;;;7.03;5.50;;;7.90;99.90;;;;;;5077904;28;20051;-60
2023/05/28 04:40:03;;;;;;;8.15;5.50;;;7.90;99.90;;;;;;5078276;28;20036;-60
2023/05/28 04:42:29;;;;;;;8.23;5.63;;;8.00;99.90;;;;;;5075814;28;20435;-60
2023/05/28 04:44:55;;;;;;;10.65;5.93;;;8.00;99.90;;;;;;5078420;28;20078;-60
2023/05/28 04:47:22;;;;;;;7.10;5.53;;;8.10;99.90;;;;;;5074491;28;20488;-60
2023/05/28 04:49:48;;;;;;;7.57;5.72;;;8.20;99.90;;;;;;5078380;28;20082;-60
2023/05/28 04:52:14;;;;;;;7.82;6.20;;;8.20;99.90;;;;;;5061855;28;20035;-59
2023/05/28 04:54:40;;;;;;;6.93;6.22;;;8.20;99.90;;;;;;5075457;28;20020;-57
2023/05/28 04:57:05;;;;;;;9.52;5.93;;;8.20;99.90;;;;;;5075729;28;20362;-57
2023/05/28 04:59:31;;;;;;;10.02;6.57;;;8.20;99.90;;;;;;5076332;28;20028;-58
2023/05/28 05:01:57;;;;;;;8.73;5.90;;;8.30;99.90;;;;;;5072686;28;20519;-56
2023/05/28 05:04:22;;;;;;;9.30;5.93;;;8.30;99.90;;;;;;5078348;28;20055;-57
2023/05/28 05:06:48;;;;;;;8.07;6.25;;;8.30;99.90;;;;;;5078690;28;20119;-57
2023/05/28 05:09:14;;;;;;;7.07;6.35;;;8.30;99.90;;;;;;5079783;28;20036;-58
2023/05/28 05:11:39;;;;;;;8.73;6.13;;;8.40;99.90;;;;;;5079957;28;20062;-57
2023/05/28 05:14:05;;;;;;;8.73;6.45;;;8.40;99.90;;;;;;5079080;28;20194;-57
2023/05/28 05:16:31;;;;;;;8.02;5.85;;;8.50;99.90;;;;;;5083400;28;20012;-58
2023/05/28 05:18:57;;;;;;;10.30;6.80;;;8.60;99.90;;;;;;5078714;28;20075;-58
2023/05/28 05:21:22;;;;;;;10.77;6.90;;;8.70;99.90;;;;;;5080386;28;20482;-57
2023/05/28 05:23:48;;;;;;;8.48;6.35;;;8.90;99.90;;;;;;5079393;28;20085;-57
2023/05/28 05:26:16;;;;;;;10.80;6.47;;;9.00;99.90;;;;;;5078003;28;20137;-60
2023/05/28 05:28:43;;;;;;;11.10;6.88;;;9.10;99.90;;;;;;5079686;28;20043;-59
2023/05/28 05:31:11;;;;;;;14.82;6.28;;;9.20;99.90;;;;;;5081756;28;20038;-59
2023/05/28 05:33:37;;;;;;;10.73;6.90;;;9.40;99.90;;;;;;5080326;28;20077;-61
2023/05/28 05:36:03;;;;;;;9.32;6.45;;;9.50;99.90;;;;;;5075927;28;20032;-61
2023/05/28 05:38:30;;;;;;;7.57;6.78;;;9.60;99.90;;;;;;5079338;28;20059;-61
2023/05/28 05:40:56;;;;;;;9.23;6.47;;;9.70;99.90;;;;;;5076563;28;20062;-60
2023/05/28 05:43:22;;;;;;;11.13;7.07;;;9.70;99.90;;;;;;5077532;28;20419;-60
2023/05/28 05:45:48;;;;;;;7.53;6.35;;;9.80;99.90;;;;;;5076268;28;20543;-59
2023/05/28 05:48:13;;;;;;;14.25;7.18;;;9.80;99.90;;;;;;5076189;28;20032;-60
2023/05/28 05:50:54;;;;;;;8.13;6.13;;;9.90;99.90;;;;;;5077068;28;20024;-60
2023/05/28 05:53:21;;;;;;;9.23;6.90;;;10.00;99.90;;;;;;5074660;28;20175;-59
2023/05/28 05:55:47;;;;;;;9.02;6.50;;;10.10;99.90;;;;;;5075402;28;20066;-60
2023/05/28 05:58:13;;;;;;;10.27;7.43;;;10.30;99.90;;;;;;5078662;28;20020;-60
2023/05/28 06:00:40;;;;;;;13.27;7.18;;;10.40;99.90;;;;;;5074595;28;20055;-59
2023/05/28 06:03:06;;;;;;;9.18;7.00;;;10.60;99.90;;;;;;5073767;28;20107;-60
2023/05/28 06:05:32;;;;;;;14.35;6.18;;;10.70;99.90;;;;;;5079356;28;20353;-61
2023/05/28 06:07:58;;;;;;;11.98;7.20;;;10.80;99.90;;;;;;5077515;28;20509;-61
2023/05/28 06:10:24;;;;;;;11.90;6.25;;;10.90;99.90;;;;;;5080207;28;20119;-60
2023/05/28 06:12:50;;;;;;;8.80;6.47;;;11.10;99.90;;;;;;5079222;28;20031;-60
2023/05/28 06:15:15;;;;;;;8.35;6.18;;;11.20;99.90;;;;;;5081967;28;20020;-61
2023/05/28 06:17:41;;;;;;;10.23;6.57;;;11.30;99.90;;;;;;5075350;28;20020;-60
2023/05/28 06:20:08;;;;;;;12.27;6.72;;;11.40;99.90;;;;;;5079501;28;20028;-62
2023/05/28 06:22:34;;;;;;;8.55;6.43;;;11.60;99.90;;;;;;5078343;28;20047;-62
2023/05/28 06:25:00;;;;;;;12.10;6.45;;;11.60;99.90;;;;;;5078687;28;20028;-61
2023/05/28 06:27:27;;;;;;;10.98;6.50;;;11.80;99.90;;;;;;5077206;28;20040;-61
2023/05/28 06:29:53;;;;;;;7.75;5.97;;;11.90;99.90;;;;;;5078990;28;20040;-61
2023/05/28 06:32:18;;;;;;;15.50;6.15;;;12.00;99.90;;;;;;5079482;28;20623;-62
2023/05/28 06:34:45;;;;;;;10.20;5.25;;;12.10;99.90;;;;;;4988219;28;20086;-59
2023/05/28 06:37:11;;;;;;;8.48;5.65;;;12.30;99.90;;;;;;5072660;28;20131;-59
2023/05/28 06:39:37;;;;;;;8.25;5.60;;;12.40;99.90;;;;;;5075003;28;20037;-59
2023/05/28 06:42:03;;;;;;;16.50;6.47;;;12.50;99.90;;;;;;5076495;28;20028;-61
2023/05/28 06:44:28;;;;;;;6.15;5.40;;;12.70;99.90;;;;;;5057270;28;20028;-60
2023/05/28 06:46:54;;;;;;;9.50;5.15;;;12.80;99.90;;;;;;5073704;28;20099;-61
2023/05/28 06:49:20;;;;;;;11.07;5.13;;;12.90;99.90;;;;;;5073709;28;20507;-61
2023/05/28 06:51:46;;;;;;;10.90;5.70;;;13.00;99.90;;;;;;5071301;28;20040;-60
2023/05/28 06:54:11;;;;;;;11.95;6.13;;;13.10;99.90;;;;;;5077623;28;20021;-61
2023/05/28 06:56:37;;;;;;;6.82;5.05;;;13.20;99.90;;;;;;5075551;28;20089;-61
2023/05/28 06:59:02;;;;;;;8.35;5.13;;;13.30;99.90;;;;;;5073623;28;20023;-60
2023/05/28 07:01:28;;;;;;;8.02;5.28;;;13.40;99.90;;;;;;5075348;28;20029;-61
2023/05/28 07:03:54;;;;;;;11.88;5.47;;;13.60;99.90;;;;;;5077572;28;20118;-60
2023/05/28 07:06:19;;;;;;;9.52;5.80;;;13.70;99.90;;;;;;5077547;28;20040;-61
2023/05/28 07:08:45;;;;;;;14.55;5.43;;;13.90;99.90;;;;;;5074200;28;20035;-61
2023/05/28 07:11:12;;;;;;;9.55;5.38;;;14.10;99.90;;;;;;5071902;28;20441;-61
2023/05/28 07:13:38;;;;;;;10.15;5.22;;;14.30;99.90;;;;;;5075740;28;20103;-61
2023/05/28 07:16:04;;;;;;;8.52;5.80;;;14.50;99.90;;;;;;5076830;28;20024;-61
2023/05/28 07:18:30;;;;;;;6.82;5.25;;;14.60;99.90;;;;;;5076568;28;20468;-61
2023/05/28 07:20:56;;;;;;;10.82;6.07;;;14.70;99.90;;;;;;5077642;28;20043;-61
2023/05/28 07:23:21;;;;;;;11.70;5.80;;;14.90;99.90;;;;;;5075563;28;20028;-60
2023/05/28 07:25:47;;;;;;;5.78;4.63;;;15.00;99.90;;;;;;5069645;28;20038;-58
2023/05/28 07:28:13;;;;;;;10.00;5.28;;;15.10;99.90;;;;;;5076411;28;20427;-62
2023/05/28 07:30:40;;;;;;;7.60;5.13;;;15.10;99.90;;;;;;5075632;28;20016;-61
2023/05/28 07:33:06;;;;;;;8.10;5.65;;;15.30;99.90;;;;;;5078964;28;20029;-60
2023/05/28 07:35:32;;;;;;;7.75;4.80;;;15.40;99.90;;;;;;5078319;28;20031;-61
2023/05/28 07:37:57;;;;;;;8.55;5.05;;;15.50;99.90;;;;;;5072920;28;20028;-57
2023/05/28 07:40:23;;;;;;;12.57;6.03;;;15.70;99.90;;;;;;5076686;28;20032;-58
2023/05/28 07:42:49;;;;;;;11.60;4.97;;;15.80;99.90;;;;;;5071268;28;20024;-58
2023/05/28 07:45:15;;;;;;;7.10;4.88;;;15.90;99.90;;;;;;5077732;28;20034;-58
2023/05/28 07:47:40;;;;;;;9.77;4.65;;;16.10;99.90;;;;;;5080612;28;20118;-57
2023/05/28 07:50:07;;;;;;;7.15;5.30;;;16.20;99.90;;;;;;5077561;28;20028;-58
2023/05/28 07:52:33;;;;;;;11.52;4.82;;;16.40;99.90;;;;;;5077059;28;20044;-58
2023/05/28 07:54:59;;;;;;;9.30;5.07;;;16.50;99.90;;;;;;5078026;28;20039;-58
2023/05/28 07:57:25;;;;;;;7.22;4.75;;;16.60;99.90;;;;;;5078123;28;20981;-58
2023/05/28 07:59:51;;;;;;;8.00;4.85;;;16.70;99.90;;;;;;5077528;28;20035;-58
2023/05/28 08:02:17;;;;;;;10.88;4.50;;;16.80;99.90;;;;;;5077087;28;20025;-58
2023/05/28 08:04:43;;;;;;;7.70;5.07;;;16.90;99.90;;;;;;5079015;28;20085;-58
2023/05/28 08:07:12;;;;;;;6.47;4.25;;;17.10;99.90;;;;;;5077338;28;20502;-58
2023/05/28 08:09:40;;;;;;;9.07;4.90;;;17.20;99.90;;;;;;5077190;28;20413;-58
2023/05/28 08:12:06;;;;;;;8.88;4.45;;;17.40;99.90;;;;;;5080447;28;20027;-59
2023/05/28 08:14:32;;;;;;;8.43;4.35;;;17.50;99.90;;;;;;5078498;28;20436;-58
2023/05/28 08:16:58;;;;;;;10.25;3.92;;;17.60;99.90;;;;;;5075503;28;20079;-58
2023/05/28 08:19:23;;;;;;;6.22;3.72;;;17.80;99.90;;;;;;5079791;28;20705;-57
2023/05/28 08:21:49;;;;;;;7.55;4.38;;;17.90;95.80;;;;;;5076851;28;20024;-58
2023/05/28 08:24:16;;;;;;;7.20;4.28;;;18.10;97.00;;;;;;5077844;28;20171;-59
2023/05/28 08:26:42;;;;;;;8.80;4.47;;;18.20;97.30;;;;;;5078965;28;20024;-58
2023/05/28 08:29:09;;;;;;;8.68;4.15;;;18.30;94.50;;;;;;5077008;28;20881;-59
2023/05/28 08:31:35;;;;;;;9.77;3.72;;;18.60;92.10;;;;;;5078262;28;20040;-58
2023/05/28 08:34:00;;;;;;;11.80;3.63;;;18.70;91.00;;;;;;5077847;28;20025;-59
2023/05/28 08:36:26;;;;;;;12.18;4.03;;;18.80;90.70;;;;;;5077499;28;20020;-59
2023/05/28 08:38:52;;;;;;;6.60;3.08;;;19.00;82.20;;;;;;5079450;28;20028;-59
2023/05/28 08:41:18;;;;;;;11.13;3.50;;;19.10;83.70;;;;;;5080526;28;20056;-59
2023/05/28 08:43:44;;;;;;;8.90;3.85;;;19.20;81.50;;;;;;5080278;28;20039;-58
2023/05/28 08:46:11;;;;;;;7.28;3.55;;;19.30;82.00;;;;;;5060462;28;20032;-57
2023/05/28 08:48:39;;;;;;;9.85;3.22;;;19.40;80.60;;;;;;5078724;28;20073;-59
2023/05/28 08:51:06;;;;;;;8.57;4.35;;;19.60;79.20;;;;;;5081667;28;20490;-58
2023/05/28 08:53:36;;;;;;;11.57;3.92;;;19.60;77.80;;;;;;5078186;28;20040;-58
2023/05/28 08:56:03;;;;;;;5.35;3.38;;;19.80;78.00;;;;;;5075746;28;20028;-58
2023/05/28 08:58:29;;;;;;;6.63;3.67;;;19.90;74.10;;;;;;5076473;28;20075;-58
2023/05/28 09:00:54;;;;;;;11.25;3.75;;;20.00;77.20;;;;;;5078305;28;20016;-58
2023/05/28 09:03:20;;;;;;;6.05;3.33;;;20.10;79.00;;;;;;5075614;28;20035;-59
2023/05/28 09:05:46;;;;;;;10.15;3.92;;;20.20;77.30;;;;;;5074411;28;20029;-59
2023/05/28 09:08:13;;;;;;;4.22;3.10;;;20.40;75.60;;;;;;5075898;28;20112;-58
2023/05/28 09:10:40;;;;;;;7.35;3.60;;;20.50;77.00;;;;;;5079847;28;20032;-59
2023/05/28 09:13:06;;;;;;;5.97;3.38;;;20.70;76.40;;;;;;5082778;28;20043;-59
2023/05/28 09:15:34;;;;;;;5.78;3.60;;;20.80;74.50;;;;;;5080077;28;20024;-58
2023/05/28 09:18:01;;;;;;;5.78;3.20;;;20.90;65.70;;;;;;5078270;28;20044;-59
2023/05/28 09:20:27;;;;;;;8.38;3.17;;;21.00;66.70;;;;;;5077091;28;20051;-59
2023/05/28 09:23:04;;;;;;;8.43;3.45;;;21.10;71.90;;;;;;5081153;28;20036;-59
2023/05/28 09:25:35;;;;;;;15.10;4.03;;;21.20;70.30;;;;;;5080718;28;20024;-58
2023/05/28 09:28:02;;;;;;;9.27;3.22;;;21.40;69.60;;;;;;5079373;28;20043;-59
2023/05/28 09:30:29;;;;;;;8.13;3.35;;;21.60;69.30;;;;;;5082962;28;20023;-60
2023/05/28 09:33:02;;;;;;;7.53;3.75;;;21.70;67.00;;;;;;5076240;28;20064;-58
2023/05/28 09:35:29;;;;;;;5.57;3.08;;;21.80;62.60;;;;;;5068438;28;20064;-57
2023/05/28 09:38:10;;;;;;;8.38;3.78;;;21.90;58.50;;;;;;5055344;28;20128;-58
2023/05/28 09:40:43;;;;;;;4.80;3.42;;;22.00;60.20;;;;;;5071686;28;20043;-58
2023/05/28 09:43:10;;;;;;;8.18;3.15;;;22.00;59.90;;;;;;5077061;28;20102;-57
2023/05/28 09:45:36;;;;;;;6.32;3.30;;;22.00;62.20;;;;;;5074254;28;20043;-58
2023/05/28 09:48:02;;;;;;;5.63;3.15;;;22.00;59.80;;;;;;5078885;28;20443;-59
2023/05/28 09:50:28;;;;;;;3.65;2.70;;;22.10;60.10;;;;;;5077507;28;20488;-58
2023/05/28 09:52:56;;;;;;;5.90;2.72;;;22.10;57.00;;;;;;5079841;28;20085;-58
2023/05/28 09:55:25;;;;;;;7.10;3.65;;;22.20;61.70;;;;;;5077936;28;20035;-57
2023/05/28 09:57:59;;;;;;;6.05;3.28;;;22.10;58.90;;;;;;5058263;28;21437;-59
2023/05/28 10:00:33;;;;;;;5.15;3.05;;;22.20;59.80;;;;;;5069413;28;21073;-58
2023/05/28 10:03:16;;;;;;;5.78;2.88;;;22.30;60.80;;;;;;5079927;28;20075;-58
2023/05/28 10:05:51;;;;;;;5.15;2.80;;;22.30;58.80;;;;;;5081762;28;20526;-58
2023/05/28 10:08:21;;;;;;;7.47;3.00;;;22.30;60.00;;;;;;5078998;28;20028;-60
2023/05/28 10:10:52;;;;;;;7.05;2.95;;;22.40;59.70;;;;;;5077443;28;20021;-59
2023/05/28 10:13:18;;;;;;;6.63;2.75;;;22.40;56.50;;;;;;5078215;28;20069;-60
2023/05/28 10:15:45;;;;;;;5.88;3.20;;;22.60;57.60;;;;;;5078229;28;20015;-60
2023/05/28 10:18:15;;;;;;;6.30;2.70;;;22.80;54.50;;;;;;5077793;28;20070;-59
2023/05/28 10:20:41;;;;;;;6.07;3.22;;;22.80;54.60;;;;;;5077925;28;20033;-59
2023/05/28 10:23:08;;;;;;;6.18;2.65;;;22.80;58.80;;;;;;5074892;28;20036;-60
2023/05/28 10:25:35;;;;;;;5.70;2.85;;;22.80;56.20;;;;;;5075027;28;20429;-60
2023/05/28 10:28:04;;;;;;;4.70;2.80;;;22.70;56.30;;;;;;5077107;28;20116;-60
2023/05/28 10:30:37;;;;;;;4.90;3.28;;;22.80;55.60;;;;;;5075341;28;20025;-61
2023/05/28 10:33:07;;;;;;;30.25;4.78;;;22.80;54.10;;;;;;5074753;28;20554;-60
2023/05/28 10:35:35;;;;;;;4.60;2.83;;;22.80;53.50;;;;;;5073813;28;20088;-61
2023/05/28 10:38:08;;;;;;;4.85;2.33;;;22.80;54.60;;;;;;5075711;28;20154;-61
2023/05/28 10:40:39;;;;;;;5.45;3.15;;;22.80;54.90;;;;;;5077234;28;20511;-59
2023/05/28 10:43:05;;;;;;;3.45;2.65;;;22.80;55.30;;;;;;5074822;28;20021;-59
2023/05/28 10:45:38;;;;;;;4.55;2.78;;;22.90;57.50;;;;;;5077563;28;20062;-59
2023/05/28 10:48:04;;;;;;;4.65;2.83;;;23.00;56.70;;;;;;5073570;28;20496;-60
2023/05/28 10:50:30;;;;;;;5.10;3.15;;;23.00;55.60;;;;;;5076214;28;20027;-60
2023/05/28 10:53:17;;;;;;;6.15;3.70;;;23.10;55.30;;;;;;5078066;28;20040;-60
2023/05/28 10:55:49;;;;;;;6.43;3.65;;;23.30;55.70;;;;;;5077115;28;20558;-60
2023/05/28 10:58:26;;;;;;;6.88;3.33;;;23.30;55.20;;;;;;5074959;28;20077;-59
2023/05/28 11:00:52;;;;;;;6.82;2.80;;;23.40;54.90;;;;;;5072282;28;20028;-58
2023/05/28 11:03:41;;;;;;;7.47;2.88;;;23.50;52.50;;;;;;5073414;28;20375;-59
2023/05/28 11:06:08;;;;;;;4.63;3.10;;;23.50;52.50;;;;;;5062185;28;20074;-59
2023/05/28 11:08:50;;;;;;;5.60;3.40;;;23.50;50.30;;;;;;5078048;28;20586;-60
2023/05/28 11:11:17;;;;;;;5.97;2.60;;;23.40;51.80;;;;;;5078329;28;20122;-60
2023/05/28 11:13:44;;;;;;;4.95;2.85;;;23.50;51.60;;;;;;5076658;28;20033;-60
2023/05/28 11:16:12;;;;;;;4.57;2.58;;;23.50;50.30;;;;;;5075402;28;20025;-60
2023/05/28 11:18:37;;;;;;;3.83;2.60;;;23.50;50.20;;;;;;5072747;28;20024;-59
2023/05/28 11:21:08;;;;;;;6.68;2.33;;;23.50;49.10;;;;;;5060671;28;20020;-59
2023/05/28 11:23:37;;;;;;;;;;;23.50;50.50;;;;;;5078327;28;20027;-60
2023/05/28 11:26:22;;;;;;;3.45;2.53;;;23.50;50.40;;;;;;5079989;28;19911;-59
2023/05/28 11:28:48;;;;;;;3.75;2.67;;;23.60;49.90;;;;;;5080081;28;20060;-59
2023/05/28 11:31:14;;;;;;;7.15;2.95;;;23.70;52.40;;;;;;5081874;28;20390;-59
2023/05/28 11:33:40;;;;;;;5.90;3.13;;;23.70;51.70;;;;;;5077568;28;20028;-60
2023/05/28 11:36:06;;;;;;;7.18;3.22;;;23.80;52.40;;;;;;5081587;28;20044;-59
2023/05/28 11:38:32;;;;;;;4.05;2.10;;;24.00;53.80;;;;;;5079509;28;20116;-60
2023/05/28 11:41:01;;;;;;;4.05;2.20;;;24.10;53.80;;;;;;5076065;28;20108;-59
2023/05/28 11:43:27;;;;;;;4.75;2.35;;;24.10;52.40;;;;;;5077246;28;20094;-59
2023/05/28 11:46:00;;;;;;;8.90;2.60;;;24.20;51.00;;;;;;5076191;28;20033;-59
2023/05/28 11:48:28;;;;;;;3.65;2.45;;;24.30;50.50;;;;;;5080807;28;20520;-60
2023/05/28 11:51:00;;;;;;;4.50;2.20;;;24.30;49.50;;;;;;5077866;28;20067;-60
2023/05/28 11:53:42;;;;;;;4.18;2.70;;;24.30;52.10;;;;;;5080207;28;20037;-60
2023/05/28 11:56:09;;;;;;;3.15;2.63;;;24.30;48.50;;;;;;5067629;28;20097;-59
2023/05/28 11:58:43;;;;;;;5.00;2.70;;;24.40;50.60;;;;;;5077811;28;20515;-60
2023/05/28 12:01:16;;;;;;;4.85;2.05;;;24.50;50.40;;;;;;5080116;28;20075;-60
2023/05/28 12:03:42;;;;;;;4.97;2.97;;;24.50;50.10;;;;;;5077568;28;20078;-58
2023/05/28 12:06:08;;;;;;;4.20;2.20;;;24.50;49.50;;;;;;5080493;28;20021;-60
2023/05/28 12:08:37;;;;;;;3.33;2.10;;;24.60;49.80;;;;;;5077676;27;20524;-59
2023/05/28 12:11:03;;;;;;;4.70;2.25;;;24.60;48.80;;;;;;5083742;28;20032;-60
2023/05/28 12:13:35;;;;;;;3.80;2.47;;;24.80;48.60;;;;;;5078830;28;20105;-60
2023/05/28 12:16:12;;;;;;;3.78;2.25;;;24.80;48.30;;;;;;5076717;28;20759;-59
2023/05/28 12:18:42;;;;;;;4.07;2.25;;;24.80;50.20;;;;;;5082708;28;20036;-60
2023/05/28 12:21:20;;;;;;;3.13;2.13;;;24.90;48.80;;;;;;5079571;28;20031;-60
2023/05/28 12:23:46;;;;;;;3.88;2.15;;;24.80;51.00;;;;;;5077034;28;20139;-59
2023/05/28 12:26:13;;;;;;;4.03;2.42;;;24.90;51.00;;;;;;5078348;28;20024;-60
2023/05/28 12:28:40;;;;;;;3.35;2.13;;;24.90;49.50;;;;;;5077894;28;20163;-59
2023/05/28 12:31:07;;;;;;;3.40;1.92;;;25.00;48.30;;;;;;5076563;28;20020;-60
2023/05/28 12:33:33;;;;;;;3.20;1.98;;;25.10;49.30;;;;;;5079925;28;20040;-59
2023/05/28 12:35:59;;;;;;;6.28;2.38;;;25.10;47.10;;;;;;5077737;28;20504;-60
2023/05/28 12:38:26;;;;;;;4.13;2.42;;;25.10;49.60;;;;;;5074764;28;20025;-59
2023/05/28 12:40:52;;;;;;;4.50;2.35;;;25.10;47.70;;;;;;5078768;28;20016;-59
2023/05/28 12:43:18;;;;;;;3.28;2.17;;;25.10;45.70;;;;;;5078034;28;20105;-59
2023/05/28 12:45:43;;;;;;;3.00;2.00;;;25.10;47.30;;;;;;5079061;28;20119;-60
2023/05/28 12:48:09;;;;;;;3.22;1.95;;;25.10;46.20;;;;;;5078422;28;20034;-58
2023/05/28 12:50:35;;;;;;;3.58;1.90;;;25.10;46.40;;;;;;5081117;28;20047;-58